Time;durP1;ratioP1;P1;durP2;ratioP2;P2;SDS_P1;SDS_P2;PMS_P1;PMS_P2;Temp;Humidity;BMP_temperature;BMP_pressure;BME280_temperature;BME280_humidity;BME280_pressure;Samples;Min_cycle;Max_cycle;Signal;HPM_P1;HPM_P2
2023/03/26 00:00:39;;;;;;;3.37;1.50;;;;;;;11.92;57.19;97002.06;5042068;28;20453;-73
2023/03/26 00:03:05;;;;;;;3.17;1.60;;;;;;;11.78;57.95;96993.88;5043378;28;20464;-72
2023/03/26 00:05:31;;;;;;;4.87;1.67;;;;;;;11.85;57.94;96991.41;5056608;28;20508;-72
2023/03/26 00:07:57;;;;;;;4.13;1.50;;;;;;;11.96;57.61;96995.50;5037529;28;20506;-74
2023/03/26 00:10:24;;;;;;;2.90;1.87;;;;;;;12.02;57.31;96988.81;5041233;28;20186;-71
2023/03/26 00:12:49;;;;;;;5.10;1.83;;;;;;;12.05;57.12;96993.69;5062056;28;20461;-71
2023/03/26 00:15:15;;;;;;;3.37;1.40;;;;;;;12.04;57.16;96986.81;5049280;28;20464;-71
2023/03/26 00:17:41;;;;;;;3.50;1.70;;;;;;;11.97;57.04;96991.91;5052769;28;20528;-72
2023/03/26 00:20:07;;;;;;;8.77;4.40;;;;;;;11.97;56.47;96986.66;5045680;28;20700;-72
2023/03/26 00:22:33;;;;;;;2.00;1.50;;;;;;;11.98;56.24;96998.81;5042062;28;20214;-71
2023/03/26 00:24:58;;;;;;;3.50;1.70;;;;;;;11.95;56.64;96989.44;5042167;28;20446;-70
2023/03/26 00:27:24;;;;;;;3.00;1.67;;;;;;;11.89;57.30;96989.28;5045981;28;20277;-70
2023/03/26 00:29:49;;;;;;;2.90;1.43;;;;;;;11.80;57.03;96991.91;5051594;28;20188;-70
2023/03/26 00:32:15;;;;;;;2.67;1.30;;;;;;;11.83;57.11;96996.84;5042745;28;20260;-71
2023/03/26 00:34:41;;;;;;;2.60;1.40;;;;;;;11.74;56.88;96997.00;5047102;28;20179;-70
2023/03/26 00:37:07;;;;;;;3.97;1.60;;;;;;;11.80;57.19;96996.31;5047713;28;20484;-70
2023/03/26 00:39:38;;;;;;;7.37;1.87;;;;;;;11.86;56.63;97000.09;5045273;28;20190;-68
2023/03/26 00:42:05;;;;;;;7.50;2.00;;;;;;;11.93;56.71;96999.28;5048667;28;20472;-70
2023/03/26 00:44:33;;;;;;;5.73;1.40;;;;;;;11.95;56.04;96988.63;5039357;28;20871;-71
2023/03/26 00:46:58;;;;;;;2.70;1.70;;;;;;;11.84;56.25;96982.69;5044298;28;20536;-70
2023/03/26 00:49:25;;;;;;;6.43;1.80;;;;;;;11.73;56.47;96980.41;5044718;28;20925;-72
2023/03/26 00:51:51;;;;;;;4.03;1.73;;;;;;;11.63;56.42;96971.88;5052603;28;20183;-70
2023/03/26 00:54:17;;;;;;;3.13;1.30;;;;;;;11.67;56.55;96970.59;5042369;28;20449;-71
2023/03/26 00:56:43;;;;;;;6.73;1.63;;;;;;;11.71;56.30;96961.41;5045385;28;20476;-70
2023/03/26 00:59:08;;;;;;;1.77;1.10;;;;;;;11.59;56.19;96970.59;5030476;28;20167;-70
2023/03/26 01:01:34;;;;;;;3.70;1.83;;;;;;;11.62;56.73;96957.13;5045722;28;20262;-69
2023/03/26 01:04:29;;;;;;;7.17;1.67;;;;;;;11.67;56.54;96955.66;5028534;28;20205;-70
2023/03/26 01:06:57;;;;;;;2.17;1.30;;;;;;;11.73;56.27;96943.66;5048031;28;20465;-69
2023/03/26 01:09:31;;;;;;;4.30;1.57;;;;;;;11.60;56.48;96949.44;5050842;28;20447;-70
2023/03/26 01:11:59;;;;;;;5.87;1.70;;;;;;;11.46;57.17;96945.66;5043498;28;20642;-71
2023/03/26 01:14:25;;;;;;;9.13;2.00;;;;;;;11.43;57.14;96946.00;5044507;28;20428;-68
2023/03/26 01:17:02;;;;;;;5.97;1.67;;;;;;;11.55;57.14;96940.41;5055409;28;20434;-70
2023/03/26 01:19:39;;;;;;;3.73;1.30;;;;;;;11.56;57.13;96931.56;5045961;28;20440;-71
2023/03/26 01:22:09;;;;;;;5.30;1.50;;;;;;;11.59;56.92;96920.72;5055063;28;20828;-71
2023/03/26 01:24:35;;;;;;;8.73;1.60;;;;;;;11.68;56.94;96911.84;5048446;28;20442;-70
2023/03/26 01:27:16;;;;;;;4.80;1.40;;;;;;;11.59;57.00;96907.59;5056113;28;20437;-71
2023/03/26 01:29:44;;;;;;;4.10;1.63;;;;;;;11.68;56.67;96911.84;5047175;28;20598;-70
2023/03/26 01:32:33;;;;;;;4.60;1.47;;;;;;;11.68;56.80;96922.34;5048583;28;20426;-69
2023/03/26 01:35:44;;;;;;;8.43;2.27;;;;;;;11.73;56.78;96908.72;5042043;28;20413;-70
2023/03/26 01:38:25;;;;;;;2.03;1.30;;;;;;;11.70;56.53;96907.25;5037009;28;20516;-70
2023/03/26 01:41:09;;;;;;;5.40;1.67;;;;;;;11.68;56.67;96898.72;5051689;28;20532;-69
2023/03/26 01:43:52;;;;;;;6.13;1.70;;;;;;;11.57;56.96;96891.19;5037280;28;20826;-71
2023/03/26 01:46:18;;;;;;;7.50;1.57;;;;;;;11.56;56.92;96885.13;5051398;28;20432;-69
2023/03/26 01:48:45;;;;;;;8.13;1.57;;;;;;;11.51;57.34;96897.94;5051179;28;20783;-70
2023/03/26 01:51:12;;;;;;;5.57;1.40;;;;;;;11.55;57.29;96890.53;5036389;28;20575;-69
2023/03/26 01:53:42;;;;;;;3.37;1.67;;;;;;;11.46;57.53;96872.19;5062416;28;20437;-72
2023/03/26 01:56:11;;;;;;;7.10;1.53;;;;;;;11.48;57.43;96878.06;5051087;28;20441;-70
2023/03/26 01:58:44;;;;;;;1.67;1.10;;;;;;;11.55;57.21;96864.31;5043934;28;20428;-70
2023/03/26 02:01:23;;;;;;;3.20;1.47;;;;;;;11.59;57.30;96853.28;5045892;28;20421;-70
2023/03/26 02:04:07;;;;;;;8.77;1.33;;;;;;;11.56;57.25;96858.06;5048683;28;20449;-70
2023/03/26 02:06:50;;;;;;;3.37;1.30;;;;;;;11.57;57.42;96850.00;5043377;28;20445;-71
2023/03/26 02:09:19;;;;;;;5.67;1.40;;;;;;;11.59;57.02;96849.88;5057415;28;20982;-71
2023/03/26 02:11:45;;;;;;;4.20;1.30;;;;;;;11.57;56.89;96838.72;5050100;28;20475;-70
2023/03/26 02:14:12;;;;;;;3.67;1.70;;;;;;;11.56;56.75;96834.44;5052936;28;20892;-70
2023/03/26 02:16:38;;;;;;;4.07;1.30;;;;;;;11.58;56.98;96824.59;5050759;28;20433;-71
2023/03/26 02:19:03;;;;;;;7.80;1.70;;;;;;;11.59;57.01;96826.25;5052726;28;20562;-71
2023/03/26 02:21:32;;;;;;;5.00;1.30;;;;;;;11.57;57.17;96817.72;5049486;28;20178;-70
2023/03/26 02:24:04;;;;;;;1.90;1.40;;;;;;;11.59;56.77;96810.50;5049524;28;20205;-70
2023/03/26 02:26:30;;;;;;;5.63;1.70;;;;;;;11.59;56.83;96811.31;5051399;28;20441;-70
2023/03/26 02:28:57;;;;;;;2.90;1.40;;;;;;;11.55;56.98;96815.25;5046441;28;20413;-70
2023/03/26 02:31:25;;;;;;;3.23;1.60;;;;;;;11.43;56.99;96812.16;5041451;28;21014;-70
2023/03/26 02:33:51;;;;;;;4.23;1.40;;;;;;;11.45;56.73;96820.69;5046164;28;20421;-70
2023/03/26 02:36:20;;;;;;;7.00;1.40;;;;;;;11.45;56.77;96819.84;5041462;28;20972;-70
2023/03/26 02:38:46;;;;;;;3.43;1.60;;;;;;;11.42;57.41;96815.78;5048605;28;20413;-71
2023/03/26 02:41:12;;;;;;;5.03;1.70;;;;;;;11.47;56.98;96815.28;5044745;28;20421;-69
2023/03/26 02:43:37;;;;;;;4.73;1.40;;;;;;;11.41;57.25;96816.75;5062376;28;20209;-70
2023/03/26 02:46:03;;;;;;;1.83;1.33;;;;;;;11.37;57.25;96800.53;5058416;28;20204;-70
2023/03/26 02:48:28;;;;;;;2.90;1.40;;;;;;;11.40;56.96;96807.25;5041348;28;20182;-70
2023/03/26 02:50:54;;;;;;;4.33;1.60;;;;;;;11.39;56.97;96799.56;5047342;28;20262;-69
2023/03/26 02:53:20;;;;;;;3.57;1.23;;;;;;;11.34;57.01;96800.06;5040226;28;20183;-71
2023/03/26 02:55:46;;;;;;;4.20;1.23;;;;;;;11.38;56.89;96798.72;5039667;28;20258;-71
2023/03/26 02:58:16;;;;;;;3.53;1.13;;;;;;;11.38;56.97;96788.22;5046054;28;20830;-72
2023/03/26 03:00:45;;;;;;;3.47;1.80;;;;;;;11.40;56.96;96786.25;5051254;28;20182;-70
2023/03/26 03:03:12;;;;;;;3.10;1.23;;;;;;;11.43;56.93;96774.59;5056231;28;20480;-69
2023/03/26 03:05:37;;;;;;;5.33;1.47;;;;;;;11.35;56.97;96776.28;5053962;28;20502;-70
2023/03/26 03:08:04;;;;;;;2.50;1.17;;;;;;;11.39;56.90;96768.88;5053994;28;20929;-72
2023/03/26 03:10:31;;;;;;;5.10;1.33;;;;;;;11.43;57.32;96758.84;5051298;28;20182;-71
2023/03/26 03:12:57;;;;;;;5.10;1.30;;;;;;;11.55;56.87;96762.75;5047785;28;20416;-71
2023/03/26 03:15:22;;;;;;;4.43;1.53;;;;;;;11.53;56.51;96755.06;5058745;28;20417;-69
2023/03/26 03:17:48;;;;;;;7.27;1.70;;;;;;;11.58;56.37;96743.25;5057646;28;20179;-70
2023/03/26 03:20:14;;;;;;;5.33;1.57;;;;;;;11.63;56.16;96743.53;5054343;28;20214;-69
2023/03/26 03:22:40;;;;;;;6.13;1.70;;;;;;;11.67;56.24;96736.97;5038424;28;20184;-69
2023/03/26 03:25:07;;;;;;;4.70;1.43;;;;;;;11.69;55.78;96729.75;5045182;28;20415;-70
2023/03/26 03:27:33;;;;;;;5.07;1.43;;;;;;;11.70;56.34;96725.31;5054017;28;20200;-68
2023/03/26 03:29:59;;;;;;;5.83;1.77;;;;;;;11.74;55.48;96721.34;5038434;28;20432;-69
2023/03/26 03:32:24;;;;;;;2.30;1.10;;;;;;;11.78;56.08;96726.09;5046717;28;20187;-70
2023/03/26 03:34:50;;;;;;;3.60;1.50;;;;;;;11.80;56.24;96712.78;5050027;28;20171;-69
2023/03/26 03:37:17;;;;;;;9.00;1.70;;;;;;;11.78;56.05;96714.78;5049221;28;20241;-69
2023/03/26 03:39:43;;;;;;;2.10;1.37;;;;;;;11.78;56.34;96710.34;5049419;28;20175;-70
2023/03/26 03:42:09;;;;;;;4.50;1.93;;;;;;;11.82;56.47;96709.00;5040381;28;20461;-72
2023/03/26 03:44:34;;;;;;;3.90;1.40;;;;;;;11.73;56.49;96709.22;5041930;28;20233;-70
2023/03/26 03:47:00;;;;;;;3.60;1.33;;;;;;;11.73;55.97;96696.91;5051728;28;20222;-69
2023/03/26 03:49:25;;;;;;;6.13;1.90;;;;;;;11.73;56.27;96707.41;5049666;28;20171;-72
2023/03/26 03:51:50;;;;;;;5.60;1.50;;;;;;;11.72;56.33;96705.75;5046074;28;20266;-70
2023/03/26 03:54:16;;;;;;;7.13;1.90;;;;;;;11.75;56.53;96702.00;5056244;28;20210;-70
2023/03/26 03:56:44;;;;;;;3.87;1.37;;;;;;;11.69;56.26;96706.13;5041218;28;20244;-71
2023/03/26 03:59:10;;;;;;;7.40;1.60;;;;;;;11.63;56.65;96685.78;5049361;28;20175;-69
2023/03/26 04:01:36;;;;;;;3.53;1.23;;;;;;;11.57;56.71;96689.13;5041174;28;20453;-71
2023/03/26 04:04:02;;;;;;;12.27;1.87;;;;;;;11.60;56.42;96683.50;5049379;28;20875;-71
2023/03/26 04:06:29;;;;;;;6.87;1.73;;;;;;;11.68;56.14;96684.28;5056805;28;20437;-70
2023/03/26 04:08:55;;;;;;;4.70;1.33;;;;;;;11.72;56.36;96674.25;5049399;28;20179;-71
2023/03/26 04:11:20;;;;;;;8.13;1.87;;;;;;;11.71;56.29;96677.06;5045607;28;20421;-70
2023/03/26 04:13:46;;;;;;;5.60;1.80;;;;;;;11.61;56.47;96672.84;5040614;28;20922;-70
2023/03/26 04:16:11;;;;;;;4.20;1.30;;;;;;;11.71;56.51;96672.66;5041674;28;20230;-71
2023/03/26 04:18:37;;;;;;;4.13;1.60;;;;;;;11.79;56.46;96669.13;5040191;28;20175;-69
2023/03/26 04:21:04;;;;;;;3.57;1.43;;;;;;;11.78;56.75;96657.84;5055308;28;20171;-71
2023/03/26 04:23:30;;;;;;;5.30;1.70;;;;;;;11.79;55.82;96659.47;5042876;28;20205;-70
2023/03/26 04:25:57;;;;;;;5.47;1.50;;;;;;;11.70;55.80;96651.81;5054479;28;20434;-70
2023/03/26 04:28:30;;;;;;;5.03;1.60;;;;;;;11.68;56.08;96641.50;5041281;28;20509;-71
2023/03/26 04:30:59;;;;;;;6.00;1.57;;;;;;;11.73;56.11;96636.53;5055376;28;20429;-71
2023/03/26 04:33:27;;;;;;;6.17;1.50;;;;;;;11.76;56.02;96636.19;5052150;28;20474;-69
2023/03/26 04:35:53;;;;;;;6.70;1.63;;;;;;;11.78;55.77;96628.94;5038978;28;20955;-69
2023/03/26 04:38:19;;;;;;;5.03;1.73;;;;;;;11.79;55.92;96629.75;5048133;28;20417;-69
2023/03/26 04:40:47;;;;;;;5.10;1.80;;;;;;;11.81;55.45;96631.25;5047800;28;20429;-69
2023/03/26 04:43:17;;;;;;;5.00;1.43;;;;;;;11.82;55.45;96617.13;5045310;28;20322;-69
2023/03/26 04:45:44;;;;;;;4.77;1.40;;;;;;;11.82;55.40;96601.38;5050548;28;20414;-69
2023/03/26 04:48:13;;;;;;;5.73;1.80;;;;;;;11.80;55.44;96605.97;5051099;28;20410;-70
2023/03/26 04:50:42;;;;;;;5.77;1.40;;;;;;;11.81;55.94;96594.47;5043539;28;20422;-70
2023/03/26 04:53:12;;;;;;;3.83;1.20;;;;;;;11.86;56.23;96595.75;5043631;28;20999;-70
2023/03/26 04:55:58;;;;;;;5.63;1.90;;;;;;;11.85;55.76;96597.56;5047268;28;20500;-70
2023/03/26 04:58:31;;;;;;;5.77;1.67;;;;;;;11.90;55.45;96594.41;5049924;28;20902;-71
2023/03/26 05:01:00;;;;;;;6.97;1.50;;;;;;;11.91;55.42;96593.41;5037227;28;20445;-73
2023/03/26 05:03:30;;;;;;;3.83;1.60;;;;;;;11.92;55.50;96587.19;5051909;28;20457;-71
2023/03/26 05:05:59;;;;;;;3.53;1.27;;;;;;;11.89;55.50;96587.53;5044833;28;20488;-69
2023/03/26 05:08:27;;;;;;;5.73;1.50;;;;;;;11.90;55.53;96587.38;5033665;28;20419;-71
2023/03/26 05:10:54;;;;;;;4.63;1.50;;;;;;;11.76;55.70;96588.94;5039755;28;20520;-70
2023/03/26 05:13:20;;;;;;;5.93;1.40;;;;;;;11.80;55.78;96582.34;5046808;28;21013;-70
2023/03/26 05:15:45;;;;;;;2.90;1.33;;;;;;;11.80;55.71;96576.25;5036248;28;20426;-70
2023/03/26 05:18:10;;;;;;;2.60;1.53;;;;;;;11.81;55.14;96583.97;5046454;28;20206;-70
2023/03/26 05:20:37;;;;;;;4.80;1.47;;;;;;;11.83;55.17;96571.50;5042193;28;20181;-70
2023/03/26 05:23:02;;;;;;;5.03;1.67;;;;;;;11.80;55.09;96565.75;5039745;28;20590;-70
2023/03/26 05:25:28;;;;;;;6.50;1.60;;;;;;;11.86;55.30;96551.13;5044575;28;20425;-70
2023/03/26 05:27:53;;;;;;;4.20;1.67;;;;;;;11.84;55.59;96557.34;5032590;28;20259;-70
2023/03/26 05:30:20;;;;;;;5.50;1.50;;;;;;;11.90;55.88;96547.16;5034713;28;20179;-71
2023/03/26 05:32:47;;;;;;;5.00;1.57;;;;;;;11.90;55.72;96550.63;5037178;28;20187;-68
2023/03/26 05:35:15;;;;;;;4.83;1.63;;;;;;;11.90;55.00;96549.78;5051042;28;20451;-70
2023/03/26 05:37:43;;;;;;;7.57;1.87;;;;;;;11.71;54.71;96541.41;5047717;28;20467;-69
2023/03/26 05:40:11;;;;;;;10.43;1.60;;;;;;;11.77;54.43;96538.06;5050397;28;20414;-70
2023/03/26 05:42:40;;;;;;;7.20;1.90;;;;;;;11.72;54.58;96536.97;5038951;28;20472;-70
2023/03/26 05:45:07;;;;;;;8.80;1.63;;;;;;;11.73;53.12;96534.16;5050015;28;20977;-72
2023/03/26 05:47:33;;;;;;;6.30;1.60;;;;;;;11.72;53.99;96527.25;5049914;28;20437;-69
2023/03/26 05:49:58;;;;;;;3.47;1.80;;;;;;;11.75;53.92;96526.91;5039799;28;20417;-70
2023/03/26 05:52:24;;;;;;;5.23;1.60;;;;;;;11.78;54.11;96518.69;5033495;28;20183;-71
2023/03/26 05:54:49;;;;;;;7.27;2.00;;;;;;;11.76;54.12;96502.31;5049062;28;20659;-70
2023/03/26 05:57:15;;;;;;;2.17;1.50;;;;;;;11.76;54.78;96501.50;5053109;28;20226;-70
2023/03/26 05:59:41;;;;;;;5.87;1.80;;;;;;;11.71;54.69;96493.31;5039219;28;20235;-69
2023/03/26 06:02:08;;;;;;;8.67;2.40;;;;;;;11.73;54.96;96486.09;5043492;28;20179;-70
2023/03/26 06:04:34;;;;;;;7.53;2.40;;;;;;;11.69;54.84;96485.63;5046106;28;20199;-70
2023/03/26 06:07:01;;;;;;;7.57;2.20;;;;;;;11.44;55.51;96474.50;5048359;28;20441;-69
2023/03/26 06:09:26;;;;;;;6.57;3.67;;;;;;;11.58;55.95;96468.50;5048845;28;20191;-71
2023/03/26 06:11:51;;;;;;;5.37;1.80;;;;;;;11.65;55.33;96468.59;5057498;28;20491;-69
2023/03/26 06:14:17;;;;;;;5.87;1.63;;;;;;;11.72;54.89;96474.75;5051174;28;20183;-71
2023/03/26 06:16:42;;;;;;;9.23;2.67;;;;;;;11.80;54.63;96464.22;5046846;28;20206;-72
2023/03/26 06:19:08;;;;;;;7.83;2.20;;;;;;;11.84;54.44;96462.03;5041788;28;20210;-71
2023/03/26 06:21:33;;;;;;;8.63;2.60;;;;;;;11.89;54.42;96449.22;5046353;28;20258;-71
2023/03/26 06:23:59;;;;;;;6.23;2.33;;;;;;;11.86;54.31;96451.34;5044271;28;20223;-70
2023/03/26 06:26:24;;;;;;;5.30;1.73;;;;;;;11.93;54.46;96444.41;5043105;28;20207;-72
2023/03/26 06:28:50;;;;;;;6.03;1.57;;;;;;;11.84;54.32;96454.97;5029300;28;20184;-71
2023/03/26 06:31:17;;;;;;;6.83;1.97;;;;;;;11.83;54.26;96442.84;5044384;28;20570;-71
2023/03/26 06:33:43;;;;;;;5.43;1.77;;;;;;;11.80;54.04;96437.97;5036317;28;20183;-73
2023/03/26 06:36:09;;;;;;;9.10;2.33;;;;;;;11.75;54.44;96432.41;5037974;28;20780;-72
2023/03/26 06:38:34;;;;;;;5.40;1.73;;;;;;;11.81;54.84;96439.59;5040731;28;20199;-70
2023/03/26 06:41:04;;;;;;;10.53;1.63;;;;;;;11.82;54.33;96441.22;5045471;28;20179;-73
2023/03/26 06:43:32;;;;;;;5.17;1.60;;;;;;;11.82;54.68;96443.84;5035625;28;20253;-71
2023/03/26 06:46:00;;;;;;;7.70;1.60;;;;;;;11.69;54.89;96427.91;5042469;28;20527;-70
2023/03/26 06:48:25;;;;;;;5.13;1.40;;;;;;;11.69;55.02;96422.66;5038412;28;20418;-69
2023/03/26 06:50:50;;;;;;;7.63;1.53;;;;;;;11.59;55.85;96416.84;5041907;28;20521;-71
2023/03/26 06:53:16;;;;;;;10.83;2.00;;;;;;;11.54;56.09;96419.97;5032850;28;20578;-70
2023/03/26 06:55:41;;;;;;;8.50;2.00;;;;;;;11.57;56.39;96410.94;5041412;28;20305;-72
2023/03/26 06:58:10;;;;;;;7.50;2.00;;;;;;;11.56;56.04;96411.94;5035423;28;20278;-72
2023/03/26 07:00:35;;;;;;;8.97;1.87;;;;;;;11.51;56.53;96404.59;5040231;28;20178;-70
2023/03/26 07:03:03;;;;;;;6.63;2.40;;;;;;;11.53;55.94;96397.34;5039274;28;20807;-70
2023/03/26 07:05:31;;;;;;;6.20;2.37;;;;;;;11.58;55.76;96389.75;5030543;28;20180;-71
2023/03/26 07:07:56;;;;;;;7.60;2.30;;;;;;;11.58;54.19;96388.97;5044281;28;20794;-72
2023/03/26 07:10:22;;;;;;;7.63;2.47;;;;;;;11.64;54.28;96372.50;5038324;28;20423;-72
2023/03/26 07:12:48;;;;;;;4.93;1.90;;;;;;;11.70;54.81;96365.69;5042869;28;20186;-71
2023/03/26 07:15:13;;;;;;;8.77;2.00;;;;;;;11.75;54.27;96369.41;5037490;28;20555;-71
2023/03/26 07:17:39;;;;;;;4.90;1.87;;;;;;;11.73;53.85;96366.16;5030775;28;20871;-72
2023/03/26 07:20:06;;;;;;;6.97;1.90;;;;;;;11.72;53.81;96369.78;5041486;28;20210;-71
2023/03/26 07:22:33;;;;;;;4.53;1.67;;;;;;;11.74;53.62;96365.16;5032900;28;20858;-71
2023/03/26 07:24:58;;;;;;;8.50;2.67;;;;;;;11.79;54.03;96364.63;5046529;28;20997;-71
2023/03/26 07:27:30;;;;;;;4.43;1.90;;;;;;;11.67;54.07;96359.00;5041923;28;20438;-72
2023/03/26 07:30:04;;;;;;;4.20;2.00;;;;;;;11.65;54.57;96353.97;5043311;28;20545;-72
2023/03/26 07:32:53;;;;;;;3.57;1.70;;;;;;;11.63;54.57;96334.13;5040553;28;20477;-72
2023/03/26 07:35:51;;;;;;;5.37;1.60;;;;;;;11.68;55.09;96337.81;5039643;28;20430;-72
2023/03/26 07:38:35;;;;;;;2.90;1.30;;;;;;;11.49;55.96;96323.44;5037111;28;20422;-72
2023/03/26 07:41:22;;;;;;;8.00;1.53;;;;;;;11.57;56.55;96334.84;5049713;28;20405;-72
2023/03/26 07:44:06;;;;;;;3.27;1.50;;;;;;;11.46;56.98;96325.59;5043449;28;20457;-72
2023/03/26 07:46:36;;;;;;;6.07;1.97;;;;;;;11.53;56.80;96319.47;5046884;28;21007;-70
2023/03/26 07:49:03;;;;;;;3.60;1.50;;;;;;;11.44;57.09;96312.66;5045672;28;20793;-72
2023/03/26 07:51:29;;;;;;;8.10;1.97;;;;;;;11.56;57.22;96307.78;5049786;28;20904;-70
2023/03/26 07:53:55;;;;;;;4.07;1.73;;;;;;;11.52;57.75;96320.44;5050386;28;20421;-70
2023/03/26 07:56:42;;;;;;;7.40;2.30;;;;;;;11.64;58.07;96314.75;5049656;28;20783;-71
2023/03/26 07:59:28;;;;;;;5.93;1.47;;;;;;;11.64;57.76;96309.50;5021861;28;20434;-71
2023/03/26 08:02:13;;;;;;;6.37;1.90;;;;;;;11.64;58.04;96309.50;5041647;28;20432;-72
2023/03/26 08:04:46;;;;;;;6.43;2.07;;;;;;;11.71;58.24;96309.59;5057478;28;20456;-72
2023/03/26 08:07:24;;;;;;;7.00;2.30;;;;;;;11.64;59.03;96315.59;5050700;28;20425;-70
2023/03/26 08:10:02;;;;;;;9.63;2.47;;;;;;;11.38;59.72;96305.50;5045713;28;20426;-71
2023/03/26 08:12:36;;;;;;;4.97;1.97;;;;;;;11.33;60.56;96311.28;5049494;28;20686;-72
2023/03/26 08:15:09;;;;;;;5.47;2.07;;;;;;;11.42;60.43;96298.09;5034418;28;20986;-70
2023/03/26 08:17:46;;;;;;;5.53;1.83;;;;;;;11.32;60.95;96282.63;5050861;28;20475;-72
2023/03/26 08:20:40;;;;;;;5.80;1.73;;;;;;;11.34;60.87;96278.03;5057998;28;20478;-72
2023/03/26 08:23:31;;;;;;;6.87;1.70;;;;;;;11.13;61.82;96271.66;5039726;28;20833;-71
2023/03/26 08:26:13;;;;;;;7.20;2.17;;;;;;;11.23;62.07;96276.63;5049967;28;20452;-71
2023/03/26 08:28:52;;;;;;;6.37;2.00;;;;;;;11.21;62.23;96276.00;5047681;28;20417;-71
2023/03/26 08:31:18;;;;;;;3.70;2.10;;;;;;;11.23;62.30;96276.63;5045549;28;20444;-73
2023/03/26 08:33:44;;;;;;;6.70;2.27;;;;;;;11.33;62.36;96260.66;5044951;28;20410;-73
2023/03/26 08:36:09;;;;;;;5.17;2.20;;;;;;;11.26;62.77;96265.81;5049701;28;20472;-71
2023/03/26 08:38:35;;;;;;;4.53;2.00;;;;;;;11.27;62.62;96258.72;5055284;28;20316;-72
2023/03/26 08:41:09;;;;;;;8.93;2.50;;;;;;;11.17;63.51;96253.75;5056895;28;20261;-72
2023/03/26 08:44:03;;;;;;;5.37;2.20;;;;;;;11.33;63.17;96245.72;5056615;28;20201;-73
2023/03/26 08:46:52;;;;;;;7.20;2.90;;;;;;;11.40;63.23;96258.13;5049303;28;20445;-71
2023/03/26 08:49:23;;;;;;;6.20;2.23;;;;;;;11.47;63.43;96256.38;5054113;28;20999;-72
2023/03/26 08:51:59;;;;;;;7.50;2.90;;;;;;;11.52;63.25;96252.22;5041994;28;20447;-71
2023/03/26 08:54:40;;;;;;;7.37;2.67;;;;;;;11.49;63.33;96259.66;5032381;28;20425;-71
2023/03/26 08:57:32;;;;;;;7.13;2.70;;;;;;;11.60;63.75;96268.84;5048719;28;20859;-71
2023/03/26 09:00:16;;;;;;;10.07;2.83;;;;;;;11.55;63.70;96258.13;5048563;28;20437;-71
2023/03/26 09:03:12;;;;;;;4.37;2.03;;;;;;;11.53;64.23;96239.91;5034078;28;20433;-72
2023/03/26 09:06:00;;;;;;;4.83;2.30;;;;;;;12.07;63.97;96241.41;5047569;28;20434;-72
2023/03/26 09:08:42;;;;;;;6.90;2.47;;;;;;;12.60;63.35;96250.84;5052442;28;20463;-73
2023/03/26 09:11:34;;;;;;;3.63;1.90;;;;;;;12.90;62.04;96272.53;5039442;28;20476;-71
2023/03/26 09:14:19;;;;;;;4.23;2.10;;;;;;;12.72;60.35;96251.97;5047277;28;20520;-71
2023/03/26 09:17:14;;;;;;;3.30;1.97;;;;;;;12.80;60.54;96255.44;5048373;28;20433;-71
2023/03/26 09:20:01;;;;;;;3.63;1.57;;;;;;;12.90;60.47;96250.66;5058892;28;20449;-72
2023/03/26 09:22:39;;;;;;;3.60;1.60;;;;;;;13.35;60.18;96253.84;5052051;28;20418;-70
2023/03/26 09:25:16;;;;;;;5.00;2.13;;;;;;;13.56;59.54;96259.22;5053172;28;20526;-71
2023/03/26 09:28:06;;;;;;;1.40;1.30;;;;;;;13.77;58.66;96261.78;5039420;28;20864;-71
2023/03/26 09:31:03;;;;;;;3.57;1.63;;;;;;;14.06;58.11;96245.88;5040483;28;20430;-71
2023/03/26 09:33:47;;;;;;;6.27;1.30;;;;;;;14.14;57.00;96237.78;5046961;28;20422;-72
2023/03/26 09:36:39;;;;;;;6.93;1.60;;;;;;;14.11;56.32;96246.13;5047716;28;20548;-72
2023/03/26 09:39:16;;;;;;;3.10;1.30;;;;;;;14.64;55.42;96242.75;5053628;28;20417;-72
2023/03/26 09:41:51;;;;;;;3.20;1.10;;;;;;;14.81;55.07;96237.94;5050131;28;20425;-71
2023/03/26 09:44:55;;;;;;;3.37;1.30;;;;;;;14.75;54.71;96220.28;5047212;28;20464;-72
2023/03/26 09:47:25;;;;;;;1.97;1.20;;;;;;;15.25;54.57;96229.59;5053183;28;20453;-71
2023/03/26 09:50:15;;;;;;;3.30;1.40;;;;;;;15.71;52.89;96217.25;5046467;28;21041;-71
2023/03/26 09:52:45;;;;;;;4.47;1.63;;;;;;;16.37;50.66;96212.69;5047974;28;20428;-70
2023/03/26 09:55:27;;;;;;;2.87;1.27;;;;;;;16.83;49.96;96223.97;5040707;28;20471;-72
2023/03/26 09:58:17;;;;;;;2.33;1.23;;;;;;;16.38;48.57;96217.75;5044153;28;20441;-71
2023/03/26 10:00:47;;;;;;;1.63;1.00;;;;;;;15.90;49.35;96216.41;5052072;28;20430;-71
2023/03/26 10:03:26;;;;;;;2.60;1.00;;;;;;;16.16;48.52;96213.84;5044562;28;20461;-71
2023/03/26 10:06:02;;;;;;;2.80;1.10;;;;;;;16.07;48.21;96214.09;5036576;28;20480;-71
2023/03/26 10:08:43;;;;;;;5.97;1.00;;;;;;;15.91;48.12;96212.75;5041735;28;20417;-71
2023/03/26 10:11:20;;;;;;;1.80;1.10;;;;;;;16.00;47.67;96218.63;5047399;28;20417;-71
2023/03/26 10:14:17;;;;;;;2.30;1.03;;;;;;;16.07;48.04;96215.91;5052489;28;20429;-71
2023/03/26 10:17:16;;;;;;;1.63;1.00;;;;;;;16.34;48.29;96216.59;5044003;28;20442;-72
2023/03/26 10:20:08;;;;;;;2.43;0.97;;;;;;;16.40;47.40;96214.94;5059293;28;20448;-71
2023/03/26 10:22:39;;;;;;;2.03;0.90;;;;;;;16.37;47.85;96224.09;5049908;28;20471;-72
2023/03/26 10:25:12;;;;;;;1.57;0.90;;;;;;;16.44;46.95;96208.19;5042166;28;20465;-72
2023/03/26 10:27:53;;;;;;;2.30;0.90;;;;;;;16.51;46.53;96208.94;5043703;28;20885;-74
2023/03/26 10:30:28;;;;;;;1.30;0.90;;;;;;;16.37;45.88;96216.16;5046840;28;20449;-74
2023/03/26 10:33:12;;;;;;;1.20;0.80;;;;;;;16.03;45.11;96189.09;5053124;28;20420;-71
2023/03/26 10:36:05;;;;;;;1.20;0.80;;;;;;;16.21;44.26;96200.81;5050311;28;20941;-71
2023/03/26 10:38:53;;;;;;;1.20;0.97;;;;;;;16.90;43.56;96203.53;5056567;28;20511;-71
2023/03/26 10:41:37;;;;;;;3.10;0.80;;;;;;;17.08;39.36;96217.88;5046293;28;20490;-72
2023/03/26 10:44:12;;;;;;;2.80;0.80;;;;;;;17.70;38.87;96204.63;5055748;28;20457;-73
2023/03/26 10:47:07;;;;;;;1.63;0.87;;;;;;;17.78;37.94;96206.97;5039312;28;20977;-71
2023/03/26 10:49:38;;;;;;;2.40;0.80;;;;;;;18.22;37.79;96204.19;5046779;28;20429;-72
2023/03/26 10:52:08;;;;;;;1.30;0.80;;;;;;;17.85;37.00;96216.66;5048046;28;20926;-71
2023/03/26 10:54:55;;;;;;;2.37;0.83;;;;;;;17.83;37.69;96210.78;5050558;28;20432;-71
2023/03/26 10:57:40;;;;;;;2.60;1.00;;;;;;;18.16;38.21;96209.56;5054665;28;21016;-71
2023/03/26 11:00:24;;;;;;;1.20;0.90;;;;;;;18.65;37.47;96218.25;5047594;28;20750;-71
2023/03/26 11:03:23;;;;;;;1.60;0.80;;;;;;;18.99;36.10;96220.41;5048690;28;20425;-71
2023/03/26 11:05:49;;;;;;;2.53;0.80;;;;;;;18.65;35.66;96223.56;5052944;28;20969;-71
2023/03/26 11:08:28;;;;;;;1.97;0.70;;;;;;;18.68;35.87;96232.91;5041806;28;20433;-70
2023/03/26 11:10:59;;;;;;;1.63;0.60;;;;;;;18.33;35.55;96226.47;5042933;28;20179;-71
2023/03/26 11:13:47;;;;;;;4.00;2.03;;;;;;;17.81;36.66;96238.31;5052223;28;20449;-70
2023/03/26 11:16:20;;;;;;;2.43;1.60;;;;;;;17.43;36.42;96226.09;5038340;28;21078;-71
2023/03/26 11:18:48;;;;;;;3.57;1.47;;;;;;;17.54;36.72;96218.47;5056576;28;20414;-73
2023/03/26 11:21:26;;;;;;;1.90;1.10;;;;;;;17.99;36.61;96206.75;5045922;28;20452;-71
2023/03/26 11:24:15;;;;;;;5.73;1.30;;;;;;;18.45;36.83;96209.78;5045444;28;20466;-72
2023/03/26 11:27:02;;;;;;;3.07;2.60;;;;;;;19.09;36.12;96201.25;5037381;28;20442;-72
2023/03/26 11:29:49;;;;;;;1.30;0.80;;;;;;;19.33;35.41;96191.41;5056348;28;20522;-71
2023/03/26 11:32:27;;;;;;;4.03;1.33;;;;;;;19.18;34.30;96186.59;5048148;28;20529;-71
2023/03/26 11:35:03;;;;;;;1.60;0.70;;;;;;;19.17;34.40;96180.44;5048256;28;20508;-71
2023/03/26 11:37:40;;;;;;;1.77;0.97;;;;;;;19.49;33.81;96190.69;5048534;28;20448;-71
2023/03/26 11:40:13;;;;;;;5.40;1.30;;;;;;;19.80;33.22;96193.97;5020735;28;20454;-71
2023/03/26 11:42:39;;;;;;;1.73;1.00;;;;;;;19.90;30.83;96197.91;5048228;28;20428;-71
2023/03/26 11:45:11;;;;;;;1.70;1.40;;;;;;;19.54;30.91;96183.84;5065363;28;20457;-71
2023/03/26 11:47:47;;;;;;;2.40;1.07;;;;;;;19.72;31.13;96172.28;5058940;28;20457;-72
2023/03/26 11:50:29;;;;;;;4.07;1.33;;;;;;;19.98;30.87;96167.47;5035284;28;20979;-71
2023/03/26 11:53:16;;;;;;;4.13;2.90;;;;;;;20.18;29.98;96169.69;5051938;28;20460;-72
2023/03/26 11:56:00;;;;;;;2.30;1.37;;;;;;;20.24;30.31;96158.09;5048568;28;20958;-72
2023/03/26 11:58:30;;;;;;;4.13;1.00;;;;;;;20.46;31.18;96157.41;5037855;28;20514;-72